Zealand Delilah — PBZI — position and weather

sailwx.info

Track history (hours):
 
Tides and Currents Weather Stations Pressure Air Temp Water Temp Dewpoint Dewpoint Depression Visibility Wind Speed Wind Dir Waves Ship Positions

Zealand Delilah

Last reported at 2014-Jul-20 15:32 UTC. Time now 2014-Jul-24 14:41 UTC.
Position N 42°30' W 080°03'.

Length 135 m; draft 8.7 m.

Type: Ship. MMSI: 245935000.

Date/timePositionNaut miles runAvg speedWind from/ knotsBaromVisibWave heightAir tempDewpointWater temp
2014-Jul-20 15:32N 42°30' W 080°03'169 6.4
2014-Jul-19 13:13N 43°55' W 076°42'812.7
2014-Jul-19 12:33N 43°60' W 076°33'1212.1
2014-Jul-19 11:33N 44°08' W 076°21'9 9.2
2014-Jul-19 10:33N 44°13' W 076°10'21 9.7
2014-Jul-19 08:27N 44°27' W 075°49'70 7.1
2014-Jul-18 22:33N 45°07' W 074°28'1010.2
2014-Jul-18 21:33N 45°13' W 074°16'9 9.5
2014-Jul-18 20:33N 45°13' W 074°03'7 7.2
2014-Jul-18 19:33N 45°18' W 073°56'1 0.8
2014-Jul-18 18:33N 45°19' W 073°55'2 2.5
2014-Jul-18 17:33N 45°21' W 073°53'9 9.1
2014-Jul-18 16:33N 45°25' W 073°41'5 5.2
2014-Jul-18 15:33N 45°24' W 073°34'4 4.1
2014-Jul-18 14:33N 45°28' W 073°30'2 2.3
2014-Jul-18 13:33N 45°30' W 073°31'3 2.8
2014-Jul-18 12:33N 45°33' W 073°32'8 8.1
2014-Jul-18 11:33N 45°40' W 073°28'9 9.1
2014-Jul-18 10:34N 45°48' W 073°20'9 9.4
2014-Jul-18 09:33N 45°55' W 073°13'9 8.7
2014-Jul-18 08:33N 46°03' W 073°07'9 8.9
2014-Jul-18 07:33N 46°09' W 072°57'10 9.8
2014-Jul-18 06:33N 46°14' W 072°45'18 3.7
2014-Jul-18 01:33N 46°24' W 072°23'0 0.0
2014-Jul-18 00:33N 46°24' W 072°23'0 0.0
2014-Jul-17 23:33N 46°24' W 072°23'0 0.0
2014-Jul-17 22:33N 46°24' W 072°23'0 0.0
2014-Jul-17 21:33N 46°24' W 072°23'0 0.0
2014-Jul-17 20:33N 46°24' W 072°23'0 0.0
2014-Jul-17 19:33N 46°24' W 072°23'0 0.0
2014-Jul-17 18:33N 46°24' W 072°23'0 0.0
2014-Jul-17 17:33N 46°24' W 072°23'0 0.0
2014-Jul-17 16:33N 46°24' W 072°23'0 0.0
2014-Jul-17 15:33N 46°24' W 072°23'0 0.0
2014-Jul-17 14:33N 46°24' W 072°23'0 0.0
2014-Jul-17 13:33N 46°24' W 072°23'0 0.0
2014-Jul-17 12:33N 46°24' W 072°23'0 0.0
2014-Jul-17 11:33N 46°24' W 072°23'0 0.0
2014-Jul-17 10:33N 46°24' W 072°23'0 0.0
2014-Jul-17 09:33N 46°24' W 072°23'0 0.0
2014-Jul-17 08:33N 46°24' W 072°23'0 0.0
2014-Jul-17 07:33N 46°24' W 072°23'0 0.0
2014-Jul-17 06:33N 46°24' W 072°23'0 0.0
2014-Jul-17 05:33N 46°24' W 072°23'0 0.0
2014-Jul-17 04:33N 46°24' W 072°23'0 0.0
2014-Jul-17 03:33N 46°24' W 072°23'0 0.0
2014-Jul-17 02:33N 46°24' W 072°23'0 0.0
2014-Jul-17 01:33N 46°24' W 072°23'0 0.0
2014-Jul-17 00:33N 46°24' W 072°23'0 0.0
2014-Jul-16 23:33N 46°24' W 072°23'0 0.0
2014-Jul-16 22:33N 46°24' W 072°23'0 0.0
2014-Jul-16 21:33N 46°24' W 072°23'0 0.0
2014-Jul-16 20:33N 46°24' W 072°23'0 0.0
2014-Jul-16 19:33N 46°24' W 072°23'0 0.0
2014-Jul-16 18:33N 46°24' W 072°23'0 0.0
2014-Jul-16 17:33N 46°24' W 072°23'0 0.0
2014-Jul-16 16:33N 46°24' W 072°23'0 0.0
2014-Jul-16 15:33N 46°24' W 072°23'0 0.0
2014-Jul-16 14:33N 46°24' W 072°23'0 0.0
2014-Jul-16 13:33N 46°24' W 072°23'0 0.0
2014-Jul-16 12:33N 46°24' W 072°23'0 0.0
2014-Jul-16 11:33N 46°24' W 072°23'0 0.0
2014-Jul-16 10:33N 46°24' W 072°23'0 0.0
2014-Jul-16 09:33N 46°24' W 072°23'0 0.0
2014-Jul-16 08:33N 46°24' W 072°23'0 0.0
2014-Jul-16 07:33N 46°24' W 072°23'0 0.0
2014-Jul-16 06:33N 46°24' W 072°23'0 0.0
2014-Jul-16 05:33N 46°24' W 072°23'0 0.0
2014-Jul-16 04:33N 46°24' W 072°23'0 0.0
2014-Jul-16 03:33N 46°24' W 072°23'0 0.0
2014-Jul-16 02:33N 46°24' W 072°23'0 0.0
2014-Jul-16 01:33N 46°24' W 072°23'0 0.0
2014-Jul-16 00:33N 46°24' W 072°23'0 0.0
2014-Jul-15 23:33N 46°24' W 072°23'0 0.0
2014-Jul-15 22:33N 46°24' W 072°23'0 0.0
2014-Jul-15 21:33N 46°24' W 072°23'0 0.0
2014-Jul-15 20:33N 46°24' W 072°23'0 0.0
2014-Jul-15 19:33N 46°24' W 072°23'0 0.0
2014-Jul-15 18:33N 46°24' W 072°23'0 0.0
2014-Jul-15 17:33N 46°24' W 072°23'0 0.0
2014-Jul-15 10:30N 46°24' W 072°23'0 0.0
2014-Jul-15 09:33N 46°24' W 072°23'0 0.0
2014-Jul-15 06:18N 46°24' W 072°23'0 0.0
2014-Jul-15 05:27N 46°24' W 072°23'0 0.0
2014-Jul-15 04:33N 46°24' W 072°23'0 0.0
2014-Jul-15 03:30N 46°24' W 072°23'0 0.0
2014-Jul-15 02:33N 46°24' W 072°23'0 0.0
2014-Jul-15 01:33N 46°24' W 072°23'0 0.0
2014-Jul-15 00:33N 46°24' W 072°23'0 0.0
2014-Jul-14 23:33N 46°24' W 072°23'0 0.0
2014-Jul-14 22:33N 46°24' W 072°23'0 0.0
2014-Jul-14 21:33N 46°24' W 072°23'0 0.0
2014-Jul-14 20:33N 46°24' W 072°23'0 0.0
2014-Jul-14 19:33N 46°24' W 072°23'0 0.0
2014-Jul-14 18:33N 46°24' W 072°23'0 0.0
2014-Jul-14 17:33N 46°24' W 072°23'1 0.8
2014-Jul-14 16:33N 46°25' W 072°23'6 5.7
2014-Jul-14 15:33N 46°28' W 072°15'11 9.6
2014-Jul-14 14:26N 46°34' W 072°03'  
Track history (hours):
 
Tides and Currents Weather Stations Pressure Air Temp Water Temp Dewpoint Dewpoint Depression Visibility Wind Speed Wind Dir Waves Ship Positions

Zealand Delilah

Last reported at 2014-Jul-20 15:32 UTC. Time now 2014-Jul-24 14:41 UTC.
Position N 42°30' W 080°03'.

Length 135 m; draft 8.7 m.

Type: Ship. MMSI: 245935000.

Date/timePositionNaut miles runAvg speedWind from/ knotsBaromVisibWave heightAir tempDewpointWater temp
2014-Jul-20 15:32N 42°30' W 080°03'169 6.4
2014-Jul-19 13:13N 43°55' W 076°42'812.7
2014-Jul-19 12:33N 43°60' W 076°33'1212.1
2014-Jul-19 11:33N 44°08' W 076°21'9 9.2
2014-Jul-19 10:33N 44°13' W 076°10'21 9.7
2014-Jul-19 08:27N 44°27' W 075°49'70 7.1
2014-Jul-18 22:33N 45°07' W 074°28'1010.2
2014-Jul-18 21:33N 45°13' W 074°16'9 9.5
2014-Jul-18 20:33N 45°13' W 074°03'7 7.2
2014-Jul-18 19:33N 45°18' W 073°56'1 0.8
2014-Jul-18 18:33N 45°19' W 073°55'2 2.5
2014-Jul-18 17:33N 45°21' W 073°53'9 9.1
2014-Jul-18 16:33N 45°25' W 073°41'5 5.2
2014-Jul-18 15:33N 45°24' W 073°34'4 4.1
2014-Jul-18 14:33N 45°28' W 073°30'2 2.3
2014-Jul-18 13:33N 45°30' W 073°31'3 2.8
2014-Jul-18 12:33N 45°33' W 073°32'8 8.1
2014-Jul-18 11:33N 45°40' W 073°28'9 9.1
2014-Jul-18 10:34N 45°48' W 073°20'9 9.4
2014-Jul-18 09:33N 45°55' W 073°13'9 8.7
2014-Jul-18 08:33N 46°03' W 073°07'9 8.9
2014-Jul-18 07:33N 46°09' W 072°57'10 9.8
2014-Jul-18 06:33N 46°14' W 072°45'18 3.7
2014-Jul-18 01:33N 46°24' W 072°23'0 0.0
2014-Jul-18 00:33N 46°24' W 072°23'0 0.0
2014-Jul-17 23:33N 46°24' W 072°23'0 0.0
2014-Jul-17 22:33N 46°24' W 072°23'0 0.0
2014-Jul-17 21:33N 46°24' W 072°23'0 0.0
2014-Jul-17 20:33N 46°24' W 072°23'0 0.0
2014-Jul-17 19:33N 46°24' W 072°23'0 0.0
2014-Jul-17 18:33N 46°24' W 072°23'0 0.0
2014-Jul-17 17:33N 46°24' W 072°23'0 0.0
2014-Jul-17 16:33N 46°24' W 072°23'0 0.0
2014-Jul-17 15:33N 46°24' W 072°23'0 0.0
2014-Jul-17 14:33N 46°24' W 072°23'0 0.0
2014-Jul-17 13:33N 46°24' W 072°23'0 0.0
2014-Jul-17 12:33N 46°24' W 072°23'0 0.0
2014-Jul-17 11:33N 46°24' W 072°23'0 0.0
2014-Jul-17 10:33N 46°24' W 072°23'0 0.0
2014-Jul-17 09:33N 46°24' W 072°23'0 0.0
2014-Jul-17 08:33N 46°24' W 072°23'0 0.0
2014-Jul-17 07:33N 46°24' W 072°23'0 0.0
2014-Jul-17 06:33N 46°24' W 072°23'0 0.0
2014-Jul-17 05:33N 46°24' W 072°23'0 0.0
2014-Jul-17 04:33N 46°24' W 072°23'0 0.0
2014-Jul-17 03:33N 46°24' W 072°23'0 0.0
2014-Jul-17 02:33N 46°24' W 072°23'0 0.0
2014-Jul-17 01:33N 46°24' W 072°23'0 0.0
2014-Jul-17 00:33N 46°24' W 072°23'0 0.0
2014-Jul-16 23:33N 46°24' W 072°23'0 0.0
2014-Jul-16 22:33N 46°24' W 072°23'0 0.0
2014-Jul-16 21:33N 46°24' W 072°23'0 0.0
2014-Jul-16 20:33N 46°24' W 072°23'0 0.0
2014-Jul-16 19:33N 46°24' W 072°23'0 0.0
2014-Jul-16 18:33N 46°24' W 072°23'0 0.0
2014-Jul-16 17:33N 46°24' W 072°23'0 0.0
2014-Jul-16 16:33N 46°24' W 072°23'0 0.0
2014-Jul-16 15:33N 46°24' W 072°23'0 0.0
2014-Jul-16 14:33N 46°24' W 072°23'0 0.0
2014-Jul-16 13:33N 46°24' W 072°23'0 0.0
2014-Jul-16 12:33N 46°24' W 072°23'0 0.0
2014-Jul-16 11:33N 46°24' W 072°23'0 0.0
2014-Jul-16 10:33N 46°24' W 072°23'0 0.0
2014-Jul-16 09:33N 46°24' W 072°23'0 0.0
2014-Jul-16 08:33N 46°24' W 072°23'0 0.0
2014-Jul-16 07:33N 46°24' W 072°23'0 0.0
2014-Jul-16 06:33N 46°24' W 072°23'0 0.0
2014-Jul-16 05:33N 46°24' W 072°23'0 0.0
2014-Jul-16 04:33N 46°24' W 072°23'0 0.0
2014-Jul-16 03:33N 46°24' W 072°23'0 0.0
2014-Jul-16 02:33N 46°24' W 072°23'0 0.0
2014-Jul-16 01:33N 46°24' W 072°23'0 0.0
2014-Jul-16 00:33N 46°24' W 072°23'0 0.0
2014-Jul-15 23:33N 46°24' W 072°23'0 0.0
2014-Jul-15 22:33N 46°24' W 072°23'0 0.0
2014-Jul-15 21:33N 46°24' W 072°23'0 0.0
2014-Jul-15 20:33N 46°24' W 072°23'0 0.0
2014-Jul-15 19:33N 46°24' W 072°23'0 0.0
2014-Jul-15 18:33N 46°24' W 072°23'0 0.0
2014-Jul-15 17:33N 46°24' W 072°23'0 0.0
2014-Jul-15 10:30N 46°24' W 072°23'0 0.0
2014-Jul-15 09:33N 46°24' W 072°23'0 0.0
2014-Jul-15 06:18N 46°24' W 072°23'0 0.0
2014-Jul-15 05:27N 46°24' W 072°23'0 0.0
2014-Jul-15 04:33N 46°24' W 072°23'0 0.0
2014-Jul-15 03:30N 46°24' W 072°23'0 0.0
2014-Jul-15 02:33N 46°24' W 072°23'0 0.0
2014-Jul-15 01:33N 46°24' W 072°23'0 0.0
2014-Jul-15 00:33N 46°24' W 072°23'0 0.0
2014-Jul-14 23:33N 46°24' W 072°23'0 0.0
2014-Jul-14 22:33N 46°24' W 072°23'0 0.0
2014-Jul-14 21:33N 46°24' W 072°23'0 0.0
2014-Jul-14 20:33N 46°24' W 072°23'0 0.0
2014-Jul-14 19:33N 46°24' W 072°23'0 0.0
2014-Jul-14 18:33N 46°24' W 072°23'0 0.0
2014-Jul-14 17:33N 46°24' W 072°23'1 0.8
2014-Jul-14 16:33N 46°25' W 072°23'6 5.7
2014-Jul-14 15:33N 46°28' W 072°15'11 9.6
2014-Jul-14 14:26N 46°34' W 072°03'  

Dump ship's entire track history